Flight Track Log - Related Links

Times and Time Zones

All times are in EDT time to prevent confusion due to time zone crossing. See the N715CD flight status page for this flight to view local times or setup timezone preferences in your user account.

Time Position Orientation Groundspeed Altitude Reporting Facility
EDT Latitude Longitude Course Direction KTS MPH feet Rate Location/Type
Sat 12:06:13 PM 43.5019 -96.7239 171° South 134 154 2,900  Level Minneapolis Center
Sat 12:07:15 PM 43.4644 -96.7192 175° South 137 158 3,700 774 Climbing Minneapolis Center
Sat 12:08:17 PM 43.4175 -96.7106 172° South 138 159 4,500 672 Climbing Minneapolis Center
Sat 12:09:20 PM 43.3794 -96.7042 173° South 139 160 5,100 624 Climbing Minneapolis Center
Sat 12:10:00 PM 43.2879 -96.6935 173° South  Level Estimated
Sat 12:10:22 PM 43.3406 -96.6983 174° South 139 160 5,800  Level Minneapolis Center
Sat 12:11:00 PM 43.2391 -96.6833 171° South  Level FlightAware Approximate
Sat 12:11:24 PM 43.3028 -96.6917 173° South 139 160 6,500  Level Minneapolis Center
Sat 12:12:26 PM 43.2639 -96.6853 173° South 139 160 7,100 677 Climbing Minneapolis Center
Sat 12:13:28 PM 43.2169 -96.6792 175° South 139 160 7,900 624 Climbing Minneapolis Center
Sat 12:14:31 PM 43.1772 -96.6708 171° South 140 161 8,400 480 Climbing Minneapolis Center
Sat 12:15:33 PM 43.1369 -96.6639 173° South 142 163 8,900 290 Climbing Minneapolis Center
Sat 12:16:35 PM 43.0944 -96.6578 174° South 148 170 9,000 48 Climbing Minneapolis Center
Sat 12:17:37 PM 43.0472 -96.6494 173° South 163 188 9,000  Level Minneapolis Center
Sat 12:18:39 PM 42.9906 -96.6397 173° South 168 193 9,000  Level Minneapolis Center
Sat 12:19:41 PM 42.9439 -96.6300 171° South 169 194 9,000  Level Minneapolis Center
Sat 12:20:44 PM 42.8961 -96.6239 175° South 169 194 9,000  Level Minneapolis Center
Sat 12:21:46 PM 42.8472 -96.6189 176° South 170 196 9,000  Level Minneapolis Center
Sat 12:22:48 PM 42.7992 -96.6106 173° South 170 196 9,000  Level Minneapolis Center
Sat 12:23:50 PM 42.7503 -96.6022 173° South 172 198 9,000  Level Minneapolis Center
Sat 12:24:52 PM 42.6928 -96.5919 173° South 172 198 9,000  Level Minneapolis Center
Sat 12:25:54 PM 42.6442 -96.5844 174° South 173 199 9,000  Level Minneapolis Center
Sat 12:26:57 PM 42.5956 -96.5767 173° South 173 199 9,000  Level Minneapolis Center
Sat 12:27:59 PM 42.5464 -96.5706 175° South 173 199 9,000  Level Minneapolis Center
Sat 12:29:01 PM 42.4975 -96.5636 174° South 173 199 9,000  Level Minneapolis Center
Sat 12:30:03 PM 42.4500 -96.5561 173° South 173 199 9,000  Level Minneapolis Center
Sat 12:31:05 PM 42.3933 -96.5436 171° South 173 199 9,000  Level Minneapolis Center
Sat 12:32:07 PM 42.3442 -96.5361 174° South 173 199 9,000  Level Minneapolis Center
Sat 12:33:09 PM 42.2953 -96.5300 175° South 174 200 9,000  Level Minneapolis Center
Sat 12:34:12 PM 42.2461 -96.5203 172° South 174 200 9,000  Level Minneapolis Center
Sat 12:35:14 PM 42.1964 -96.5133 174° South 175 201 9,000  Level Minneapolis Center
Sat 12:36:16 PM 42.1464 -96.5069 175° South 175 201 9,000  Level Minneapolis Center
Sat 12:37:18 PM 42.0872 -96.4967 173° South 176 203 9,000  Level Minneapolis Center
Sat 12:38:20 PM 42.0378 -96.4900 174° South 176 203 9,000  Level Minneapolis Center
Sat 12:39:22 PM 41.9886 -96.4814 173° South 176 203 9,000  Level Minneapolis Center
Sat 12:40:25 PM 41.9386 -96.4739 174° South 176 203 9,000  Level Minneapolis Center
Sat 12:40:45 PM 41.9081 -96.4892 200° South 182 209 9,000  Level Minneapolis Center
Sat 12:41:33 PM 41.8656 -96.4797 171° South 181 208 9,000  Level Minneapolis Center
Sat 12:42:29 PM 41.8278 -96.4550 154° Southeast 180 207 9,000  Level Minneapolis Center
Sat 12:43:35 PM 41.7661 -96.4625 185° South 182 209 9,000  Level Minneapolis Center
Sat 12:44:33 PM 41.7267 -96.4397 157° South 180 207 9,000  Level Minneapolis Center
Sat 12:45:35 PM 41.6764 -96.4328 174° South 181 208 9,000  Level Minneapolis Center
Sat 12:46:37 PM 41.6097 -96.4347 181° South 181 208 9,000  Level Minneapolis Center
Sat 12:47:37 PM 41.5611 -96.4261 172° South 180 207 9,000  Level Minneapolis Center
Sat 12:48:38 PM 41.5106 -96.4178 173° South 181 208 9,000  Level Minneapolis Center
Sat 12:49:39 PM 41.4619 -96.4092 172° South 181 208 9,000  Level Minneapolis Center
Sat 12:50:40 PM 41.4133 -96.4006 172° South 179 206 9,000  Level Minneapolis Center
Sat 12:51:40 PM 41.3603 -96.3894 171° South 180 207 9,000  Level Minneapolis Center
Sat 12:52:41 PM 41.3094 -96.3811 173° South 180 207 9,000  Level Minneapolis Center
Sat 12:52:51 PM 41.3186 -96.3769 19° North 181 208 9,000  Level Minneapolis Center
Sat 12:53:42 PM 41.2608 -96.3725 177° South 180 207 9,000  Level Minneapolis Center
Sat 12:53:53 PM 41.2592 -96.3686 120° Southeast 181 208 9,000  Level Minneapolis Center
Sat 12:54:43 PM 41.2103 -96.3642 176° South 179 206 9,000  Level Minneapolis Center
Sat 12:54:55 PM 41.2097 -96.3603 101° East 181 208 9,000  Level Minneapolis Center
Sat 12:55:44 PM 41.1594 -96.3558 176° South 182 209 9,000  Level Minneapolis Center
Sat 12:55:57 PM 41.1597 -96.3533 82° East 181 208 9,000  Level Minneapolis Center
Sat 12:56:59 PM 41.1089 -96.3464 174° South 181 208 9,000  Level Minneapolis Center
Sat 12:57:45 PM 41.0558 -96.3369 172° South 183 211 9,000  Level Minneapolis Center
Sat 12:58:01 PM 41.0589 -96.3381 345° North 181 208 9,000  Level Minneapolis Center
Sat 12:58:46 PM 41.0050 -96.3286 172° South 183 211 9,000  Level Minneapolis Center
Sat 12:59:03 PM 40.9986 -96.3292 184° South 181 208 9,000  Level Minneapolis Center
Sat 12:59:47 PM 40.9564 -96.3200 171° South 184 212 9,000  Level Minneapolis Center
Sat 01:00:06 PM 40.9483 -96.3197 179° South 181 208 9,000  Level Minneapolis Center
Sat 01:00:48 PM 40.9058 -96.3117 172° South 184 212 9,000  Level Minneapolis Center
Sat 01:01:08 PM 40.8964 -96.3131 186° South 182 209 9,000  Level Minneapolis Center
Sat 01:01:48 PM 40.8550 -96.3036 170° South 184 212 9,000 -97 Level Minneapolis Center
Sat 01:02:10 PM 40.8464 -96.3056 190° South 182 209 8,900  Descending Minneapolis Center
Sat 01:02:49 PM 40.8000 -96.2931 168° South 183 211 9,000 97 Climbing Minneapolis Center
Sat 01:03:12 PM 40.7956 -96.2978 219° Southwest 182 209 9,000  Level Minneapolis Center
Sat 01:03:50 PM 40.7492 -96.2847 168° South 185 213 9,000  Level Minneapolis Center
Sat 01:04:14 PM 40.7350 -96.2889 193° South 182 209 9,000  Level Minneapolis Center
Sat 01:04:51 PM 40.6983 -96.2739 163° South 185 213 9,000  Level Minneapolis Center
Sat 01:05:16 PM 40.6839 -96.2806 199° South 183 211 9,000  Level Minneapolis Center
Sat 01:06:18 PM 40.6325 -96.2742 175° South 183 211 9,000  Level Minneapolis Center
Sat 01:07:21 PM 40.5806 -96.2644 172° South 184 212 9,000  Level Minneapolis Center
Sat 01:08:23 PM 40.5294 -96.2572 174° South 184 212 9,000  Level Minneapolis Center
Sat 01:09:25 PM 40.4789 -96.2508 175° South 184 212 9,000  Level Minneapolis Center
Sat 01:10:27 PM 40.4175 -96.2411 173° South 184 212 9,000  Level Minneapolis Center
Sat 01:11:29 PM 40.3664 -96.2347 175° South 184 212 9,000  Level Minneapolis Center
Sat 01:12:31 PM 40.3150 -96.2253 172° South 184 212 9,000  Level Minneapolis Center
Sat 01:13:33 PM 40.2636 -96.2181 174° South 184 212 9,000  Level Minneapolis Center
Sat 01:14:36 PM 40.2125 -96.2097 173° South 184 212 9,000  Level Minneapolis Center
Sat 01:15:38 PM 40.1594 -96.2028 174° South 184 212 9,000  Level Minneapolis Center
Sat 01:16:40 PM 40.0978 -96.1908 172° South 185 213 9,000  Level Minneapolis Center
Sat 01:17:42 PM 40.0447 -96.1844 175° South 186 214 9,000  Level Minneapolis Center
Sat 01:18:44 PM 39.9933 -96.1797 176° South 186 214 9,000  Level Minneapolis Center
Sat 01:19:46 PM 39.9414 -96.1697 172° South 186 214 9,000  Level Minneapolis Center
Sat 01:20:48 PM 39.8886 -96.1617 173° South 186 214 9,000  Level Minneapolis Center
Sat 01:21:51 PM 39.8358 -96.1558 175° South 186 214 9,000  Level Minneapolis Center
Sat 01:22:53 PM 39.7728 -96.1461 173° South 187 215 9,000  Level Minneapolis Center
Sat 01:23:55 PM 39.7200 -96.1347 171° South 187 215 9,000  Level Minneapolis Center
Sat 01:24:57 PM 39.6700 -96.1289 175° South 187 215 9,000  Level Minneapolis Center
Sat 01:25:59 PM 39.6175 -96.1242 176° South 187 215 9,000  Level Minneapolis Center
Sat 01:27:01 PM 39.5669 -96.1144 172° South 187 215 9,000  Level Minneapolis Center
Sat 01:28:03 PM 39.5150 -96.1044 172° South 187 215 9,000  Level Minneapolis Center
Sat 01:29:06 PM 39.4544 -96.1011 178° South 186 214 9,000  Level Minneapolis Center
Sat 01:30:08 PM 39.4033 -96.0928 173° South 186 214 9,000  Level Minneapolis Center
Sat 01:31:10 PM 39.3517 -96.0778 167° South 186 214 9,000  Level Minneapolis Center
Sat 01:32:12 PM 39.2994 -96.0794 181° South 186 214 9,000  Level Minneapolis Center
Sat 01:33:39 PM 39.2289 -96.0669 172° South 187 215 9,000  Level Kansas City Center
Sat 01:34:40 PM 39.1764 -96.0603 174° South 187 215 9,000  Level Kansas City Center
Sat 01:35:40 PM 39.1253 -96.0531 174° South 187 215 9,000  Level Kansas City Center
Sat 01:36:44 PM 39.0636 -96.0442 174° South 187 215 9,000  Level Kansas City Center
Sat 01:37:45 PM 39.0128 -96.0364 173° South 187 215 9,000  Level Kansas City Center
Sat 01:38:45 PM 38.9622 -96.0292 174° South 187 215 9,000  Level Kansas City Center
Sat 01:39:50 PM 38.9108 -96.0217 174° South 187 215 9,000  Level Kansas City Center
Sat 01:40:51 PM 38.8600 -96.0147 174° South 186 214 9,000  Level Kansas City Center
Sat 01:41:52 PM 38.8058 -96.0081 175° South 186 214 9,000  Level Kansas City Center
Sat 01:42:55 PM 38.7492 -95.9989 173° South 186 214 9,000  Level Kansas City Center
Sat 01:43:56 PM 38.6983 -95.9928 175° South 186 214 9,000  Level Kansas City Center
Sat 01:44:56 PM 38.6478 -95.9861 174° South 186 214 9,000  Level Kansas City Center
Sat 01:46:00 PM 38.5978 -95.9786 173° South 185 213 9,000  Level Kansas City Center
Sat 01:47:01 PM 38.5483 -95.9708 173° South 182 209 9,000  Level Kansas City Center
Sat 01:48:02 PM 38.4947 -95.9622 173° South 182 209 9,000  Level Kansas City Center
Sat 01:49:06 PM 38.4500 -95.9544 172° South 181 208 9,000  Level Kansas City Center
Sat 01:50:08 PM 38.3914 -95.9447 173° South 181 208 9,000  Level Kansas City Center
Sat 01:51:09 PM 38.3431 -95.9364 172° South 180 207 9,000  Level Kansas City Center
Sat 01:52:11 PM 38.2950 -95.9289 173° South 179 206 9,000  Level Kansas City Center
Sat 01:53:12 PM 38.2461 -95.9208 173° South 178 205 9,000  Level Kansas City Center
Sat 01:54:13 PM 38.1914 -95.9114 172° South 178 205 9,000 -146 Level Kansas City Center
Sat 01:55:15 PM 38.1481 -95.9036 172° South 178 205 8,700 -387 Descending Kansas City Center
Sat 01:56:17 PM 38.0958 -95.8956 173° South 184 212 8,200 -492 Descending Kansas City Center
Sat 01:57:17 PM 38.0325 -95.8856 173° South 189 217 7,700 -484 Descending Kansas City Center
Sat 01:58:21 PM 37.9789 -95.8775 173° South 190 219 7,200 -432 Descending Kansas City Center
Sat 01:59:22 PM 37.9267 -95.8678 172° South 191 220 6,800 -443 Descending Kansas City Center
Sat 02:00:23 PM 37.8731 -95.8572 171° South 193 222 6,300 -435 Descending Kansas City Center
Sat 02:01:26 PM 37.8208 -95.8508 174° South 193 222 5,900 -484 Descending Kansas City Center
Sat 02:02:27 PM 37.7592 -95.8372 170° South 191 220 5,300 -496 Descending Kansas City Center
Sat 02:03:27 PM 37.7086 -95.8272 171° South 190 219 4,900 -387 Descending Kansas City Center
Sat 02:04:31 PM 37.6594 -95.8208 174° South 183 211 4,500 -381 Descending Kansas City Center
Sat 02:05:33 PM 37.6097 -95.8144 174° South 180 207 4,100 -244 Descending Kansas City Center
Sat 02:06:34 PM 37.5611 -95.8067 173° South 180 207 4,000 -50 Descending Kansas City Center
Sat 02:07:34 PM 37.5164 -95.8008 174° South 171 197 4,000  Level Kansas City Center
Sat 02:08:36 PM 37.4725 -95.7911 170° South 165 190 4,000  Level Kansas City Center
Sat 02:09:37 PM 37.4286 -95.7839 173° South 163 188 4,000  Level Kansas City Center
Sat 02:10:41 PM 37.3844 -95.7783 174° South 163 188 4,000 -96 Level Kansas City Center
Sat 02:11:42 PM 37.3306 -95.7719 175° South 163 188 3,800 -197 Descending Kansas City Center

Login

Don't have an account? Register now (free) for customized features, flight alerts, and more!